Time;durP1;ratioP1;P1;durP2;ratioP2;P2;SDS_P1;SDS_P2;PMS_P1;PMS_P2;Temp;Humidity;BMP_temperature;BMP_pressure;BME280_temperature;BME280_humidity;BME280_pressure;Samples;Min_cycle;Max_cycle;Signal;HPM_P1;HPM_P2
2022/09/22 00:01:44;;;;;;;13.73;7.22;;;;;;;7.95;100.00;101756.91;4968094;28;20141;-81
2022/09/22 00:04:12;;;;;;;10.55;7.00;;;;;;;7.94;100.00;101760.47;4981540;28;20050;-82
2022/09/22 00:06:42;;;;;;;8.85;6.82;;;;;;;7.96;100.00;101758.56;4960895;28;20112;-80
2022/09/22 00:09:11;;;;;;;8.68;6.40;;;;;;;7.97;100.00;101755.03;4961160;28;20057;-79
2022/09/22 00:11:42;;;;;;;12.85;7.38;;;;;;;7.97;100.00;101765.44;4962746;28;20083;-78
2022/09/22 00:14:11;;;;;;;10.05;6.57;;;;;;;7.94;100.00;101766.50;4963114;28;20059;-79
2022/09/22 00:16:48;;;;;;;10.35;6.57;;;;;;;7.90;100.00;101770.28;4975602;28;20082;-81
2022/09/22 00:19:19;;;;;;;11.45;6.55;;;;;;;7.73;100.00;101756.78;4968287;28;20055;-79
2022/09/22 00:21:46;;;;;;;14.15;7.13;;;;;;;7.75;100.00;101768.75;4962205;29;20119;-78
2022/09/22 00:24:16;;;;;;;9.32;6.53;;;;;;;7.73;100.00;101765.44;4960219;29;20134;-81
2022/09/22 00:26:43;;;;;;;9.10;6.53;;;;;;;7.76;100.00;101764.38;4958666;28;20043;-80
2022/09/22 00:29:11;;;;;;;10.18;7.20;;;;;;;7.70;100.00;101757.00;4974471;28;20050;-82
2022/09/22 00:31:42;;;;;;;8.82;6.53;;;;;;;7.69;100.00;101763.16;4965838;28;20067;-80
2022/09/22 00:34:14;;;;;;;9.98;6.88;;;;;;;7.69;100.00;101769.19;4978063;28;20074;-79
2022/09/22 00:36:42;;;;;;;11.67;7.50;;;;;;;7.70;100.00;101755.22;4977665;28;20093;-80
2022/09/22 00:39:09;;;;;;;14.45;7.65;;;;;;;7.69;100.00;101760.56;4961660;28;20313;-80
2022/09/22 00:41:39;;;;;;;12.18;7.60;;;;;;;7.71;100.00;101762.09;4960111;29;20071;-79
2022/09/22 00:44:35;;;;;;;11.95;7.88;;;;;;;7.69;100.00;101765.75;4959411;29;20079;-79
2022/09/22 00:47:08;;;;;;;13.13;7.68;;;;;;;7.62;100.00;101758.38;4958932;29;20055;-79
2022/09/22 00:49:39;;;;;;;;;;;;;;;7.61;100.00;101764.53;4959801;29;20134;-79
2022/09/22 00:52:07;;;;;;;12.15;7.82;;;;;;;7.58;100.00;101756.94;4959080;29;19922;-79
2022/09/22 00:54:36;;;;;;;12.45;8.48;;;;;;;7.56;100.00;101763.22;4958214;28;20062;-80
2022/09/22 00:57:07;;;;;;;11.23;8.30;;;;;;;7.54;100.00;101760.72;4958341;29;20475;-80
2022/09/22 00:59:35;;;;;;;14.77;8.50;;;;;;;7.63;100.00;101764.41;4959322;29;20090;-79
2022/09/22 01:02:02;;;;;;;10.82;7.72;;;;;;;7.58;100.00;101762.13;4959151;29;20057;-80
2022/09/22 01:04:30;;;;;;;13.32;8.52;;;;;;;7.55;100.00;101751.97;4957352;28;20094;-79
2022/09/22 01:06:58;;;;;;;12.23;8.25;;;;;;;7.56;100.00;101756.22;4957393;29;20159;-80
2022/09/22 01:09:27;;;;;;;13.45;8.85;;;;;;;7.51;100.00;101750.53;4956457;28;20051;-81
2022/09/22 01:11:53;;;;;;;13.98;8.63;;;;;;;7.55;100.00;101753.75;4957779;28;20059;-79
2022/09/22 01:14:35;;;;;;;18.45;8.45;;;;;;;7.52;100.00;101741.75;4959625;28;20402;-80
2022/09/22 01:17:08;;;;;;;12.18;7.95;;;;;;;7.48;100.00;101735.13;4972504;28;20053;-81
2022/09/22 01:20:16;;;;;;;14.50;8.38;;;;;;;7.44;100.00;101738.03;4978459;28;20086;-81
2022/09/22 01:23:05;;;;;;;12.13;7.90;;;;;;;7.40;100.00;101736.59;4953483;28;20051;-80
2022/09/22 01:26:02;;;;;;;12.60;8.10;;;;;;;7.33;100.00;101741.41;4976234;28;20115;-81
2022/09/22 01:28:51;;;;;;;13.63;8.80;;;;;;;7.29;100.00;101734.75;4963954;29;20087;-83
2022/09/22 01:31:33;;;;;;;11.30;8.15;;;;;;;7.25;100.00;101733.28;4964391;28;20061;-84
2022/09/22 01:34:09;;;;;;;11.33;8.70;;;;;;;7.14;100.00;101714.97;4959304;29;20142;-81
2022/09/22 01:36:39;;;;;;;13.38;8.45;;;;;;;7.09;100.00;101710.09;4981602;28;20321;-81
2022/09/22 01:58:13;;;;;;;13.52;8.75;;;;;;;7.02;100.00;101706.28;4900153;28;20066;-79
2022/09/22 02:00:44;;;;;;;13.13;9.05;;;;;;;7.10;100.00;101718.72;4971212;28;20464;-80
2022/09/22 02:03:15;;;;;;;12.02;8.55;;;;;;;7.01;100.00;101703.78;4984745;28;20109;-80
2022/09/22 02:05:45;;;;;;;13.65;8.43;;;;;;;6.94;100.00;101703.38;4983034;28;20054;-80
2022/09/22 02:08:19;;;;;;;13.43;8.52;;;;;;;7.01;100.00;101725.44;4984472;28;20046;-81
2022/09/22 02:10:59;;;;;;;11.88;8.45;;;;;;;6.94;100.00;101711.19;4983912;28;20046;-81
2022/09/22 02:13:36;;;;;;;12.15;8.80;;;;;;;6.96;100.00;101723.16;4987445;28;20050;-78
2022/09/22 02:16:04;;;;;;;12.48;7.97;;;;;;;6.89;100.00;101714.09;4984528;28;20047;-78
2022/09/22 02:18:43;;;;;;;13.25;8.63;;;;;;;6.80;100.00;101690.47;4985210;28;20160;-80
2022/09/22 02:21:11;;;;;;;17.83;9.20;;;;;;;6.76;100.00;101697.66;4985089;28;20046;-79
2022/09/22 02:23:38;;;;;;;13.65;8.95;;;;;;;6.87;100.00;101712.53;4983580;28;20058;-79
2022/09/22 02:26:22;;;;;;;14.50;8.85;;;;;;;6.84;100.00;101718.78;4985508;28;20047;-79
2022/09/22 02:32:27;;;;;;;15.98;9.65;;;;;;;6.80;100.00;101704.31;4962392;28;20059;-78
2022/09/22 02:35:04;;;;;;;12.60;8.55;;;;;;;6.81;100.00;101711.19;4982681;28;20415;-81
2022/09/22 02:37:50;;;;;;;17.33;8.88;;;;;;;6.66;100.00;101684.44;4982088;28;20054;-80
2022/09/22 02:40:32;;;;;;;13.90;8.88;;;;;;;6.69;100.00;101688.59;4982332;28;20058;-80
2022/09/22 02:43:14;;;;;;;13.05;9.10;;;;;;;6.62;100.00;101682.16;4982134;28;20046;-79
2022/09/22 02:46:01;;;;;;;13.60;8.70;;;;;;;6.62;100.00;101682.16;4981204;28;20590;-80
2022/09/22 02:55:03;;;;;;;11.95;8.32;;;;;;;6.62;100.00;101671.75;4981622;28;20047;-80
2022/09/22 03:04:34;;;;;;;11.30;8.98;;;;;;;6.68;100.00;101692.16;4927836;29;20046;-80
2022/09/22 03:07:05;;;;;;;11.32;8.73;;;;;;;6.61;100.00;101683.13;4926516;28;20602;-78
2022/09/22 03:09:35;;;;;;;12.18;8.55;;;;;;;6.71;100.00;101691.94;4963515;28;20133;-80
2022/09/22 03:12:07;;;;;;;17.55;9.07;;;;;;;6.56;100.00;101674.81;4962092;28;20052;-79
2022/09/22 03:14:34;;;;;;;17.37;8.83;;;;;;;6.52;100.00;101675.94;4962432;28;20043;-81
2022/09/22 03:17:01;;;;;;;14.63;8.68;;;;;;;6.50;100.00;101662.22;4962383;28;20327;-80
2022/09/22 03:19:41;;;;;;;17.70;9.43;;;;;;;6.59;100.00;101679.78;4965650;28;20489;-81
2022/09/22 03:22:21;;;;;;;14.07;8.63;;;;;;;6.51;100.00;101674.28;4965838;28;20063;-81
2022/09/22 03:24:57;;;;;;;17.10;8.98;;;;;;;6.43;100.00;101664.41;4966120;28;20088;-81
2022/09/22 03:27:37;;;;;;;13.20;9.00;;;;;;;6.54;100.00;101676.69;4963473;28;20051;-80
2022/09/22 03:30:20;;;;;;;16.42;9.35;;;;;;;6.42;100.00;101686.13;4961571;28;20138;-81
2022/09/22 03:33:06;;;;;;;13.60;9.65;;;;;;;6.49;100.00;101676.16;4960863;29;20070;-81
2022/09/22 03:35:47;;;;;;;12.35;9.27;;;;;;;6.32;100.00;101659.09;4961200;28;20131;-80
2022/09/22 03:38:17;;;;;;;14.15;9.20;;;;;;;6.29;100.00;101660.13;4961246;28;20069;-79
2022/09/22 03:41:00;;;;;;;17.40;9.25;;;;;;;6.44;100.00;101675.63;4961153;28;20051;-79
2022/09/22 03:43:27;;;;;;;;;;;;;;;6.42;100.00;101680.09;4961592;28;20134;-80
2022/09/22 03:45:57;;;;;;;13.02;8.65;;;;;;;6.31;100.00;101673.84;4962394;28;19929;-79
2022/09/22 03:48:24;;;;;;;14.38;9.25;;;;;;;6.29;100.00;101669.69;4963841;28;20114;-81
2022/09/22 03:50:55;;;;;;;11.30;8.75;;;;;;;6.27;100.00;101672.38;4962764;28;20051;-81
2022/09/22 03:53:32;;;;;;;11.48;8.95;;;;;;;6.20;100.00;101670.28;4964102;28;20118;-81
2022/09/22 03:56:05;;;;;;;13.30;8.77;;;;;;;6.09;100.00;101646.81;4963911;28;20055;-80
2022/09/22 04:16:48;;;;;;;16.08;9.73;;;;;;;6.01;100.00;101639.53;4803574;29;20069;-82
2022/09/22 04:22:49;;;;;;;14.80;9.50;;;;;;;6.11;100.00;101647.53;4960326;28;20058;-81
2022/09/22 04:56:38;;;;;;;15.38;9.40;;;;;;;5.88;100.00;101642.06;4953495;23;20106;-80
2022/09/22 04:59:05;;;;;;;14.30;9.88;;;;;;;5.83;100.00;101635.50;4958943;29;20090;-79
2022/09/22 05:01:32;;;;;;;14.15;9.23;;;;;;;5.88;100.00;101643.84;4953313;29;20500;-78
2022/09/22 05:03:59;;;;;;;26.45;10.10;;;;;;;5.84;100.00;101631.97;4958609;29;20093;-79
2022/09/22 05:06:26;;;;;;;16.48;9.73;;;;;;;5.88;100.00;101638.63;4934071;29;20524;-79
2022/09/22 05:08:54;;;;;;;17.90;9.95;;;;;;;5.96;100.00;101657.19;4922077;29;20143;-81
2022/09/22 05:11:22;;;;;;;13.00;9.18;;;;;;;5.94;100.00;101653.84;4925380;29;20055;-81
2022/09/22 05:14:03;;;;;;;14.00;9.15;;;;;;;5.93;100.00;101652.19;4943636;29;20106;-79
2022/09/22 05:16:34;;;;;;;16.77;10.57;;;;;;;5.77;100.00;101636.75;4949175;29;20059;-80
2022/09/22 05:19:01;;;;;;;13.32;9.50;;;;;;;5.89;100.00;101655.91;4953920;29;20052;-82
2022/09/22 05:21:27;;;;;;;14.60;10.10;;;;;;;5.71;100.00;101629.34;4953409;29;20056;-81
2022/09/22 05:23:56;;;;;;;15.10;9.82;;;;;;;5.91;100.00;101659.25;4953597;29;20055;-80
2022/09/22 05:26:23;;;;;;;15.93;9.88;;;;;;;5.84;100.00;101645.78;4952906;29;20056;-80
2022/09/22 05:28:50;;;;;;;15.98;9.77;;;;;;;5.72;100.00;101627.56;4953272;29;20108;-80
2022/09/22 05:31:21;;;;;;;14.18;9.20;;;;;;;5.76;100.00;101623.84;4942183;29;20628;-83
2022/09/22 05:33:48;;;;;;;13.63;9.48;;;;;;;5.88;100.00;101647.25;4934022;29;20064;-82
2022/09/22 05:36:15;;;;;;;19.33;9.63;;;;;;;5.82;100.00;101642.47;4934684;29;20051;-80
2022/09/22 05:38:42;;;;;;;18.50;9.77;;;;;;;5.90;100.00;101655.81;4937610;29;20119;-82
2022/09/22 05:41:10;;;;;;;11.90;9.43;;;;;;;5.95;100.00;101658.13;4945963;29;20043;-82
2022/09/22 05:43:39;;;;;;;16.00;9.73;;;;;;;5.80;100.00;101640.91;4957417;29;20048;-81
2022/09/22 05:46:06;;;;;;;12.98;9.10;;;;;;;6.01;100.00;101659.47;4957257;29;20050;-79
2022/09/22 05:48:42;;;;;;;;;;;;;;;;;;;;;
2022/09/22 05:51:09;;;;;;;19.85;9.55;;;;;;;6.02;100.00;101674.97;4940680;29;20054;-81
2022/09/22 05:53:36;;;;;;;17.23;9.77;;;;;;;6.05;100.00;101664.38;4928637;29;20052;-83
2022/09/22 06:01:13;;;;;;;13.63;10.13;;;;;;;6.03;100.00;101648.06;4959679;28;20051;-78
2022/09/22 06:03:40;;;;;;;23.77;11.07;;;;;;;6.17;100.00;101655.75;4962164;28;20047;-79
2022/09/22 06:06:07;;;;;;;19.85;10.10;;;;;;;6.25;100.00;101660.44;4956299;28;20059;-79
2022/09/22 06:08:33;;;;;;;15.07;10.52;;;;;;;6.40;100.00;101666.38;4939947;29;20083;-78
2022/09/22 06:11:00;;;;;;;21.52;9.95;;;;;;;6.46;100.00;101676.34;4940363;29;20075;-81
2022/09/22 06:13:27;;;;;;;16.67;9.43;;;;;;;6.56;100.00;101673.03;4978743;23;20138;-81
2022/09/22 06:15:54;;;;;;;17.30;10.38;;;;;;;6.81;100.00;101672.16;4976719;28;20079;-78
2022/09/22 06:18:25;;;;;;;22.20;10.40;;;;;;;7.16;100.00;101667.06;4962306;28;20481;-79
2022/09/22 06:20:54;;;;;;;19.05;9.90;;;;;;;7.40;100.00;101672.31;4965690;28;20115;-80
2022/09/22 06:23:22;;;;;;;22.50;10.38;;;;;;;7.51;100.00;101663.75;4954383;28;20063;-79
2022/09/22 06:25:49;;;;;;;23.60;9.85;;;;;;;7.92;100.00;101666.75;4946703;29;20354;-80
2022/09/22 06:28:15;;;;;;;16.27;10.18;;;;;;;8.49;100.00;101658.13;4944884;29;20051;-79
2022/09/22 06:30:43;;;;;;;22.05;8.90;;;;;;;9.29;100.00;101657.94;4953982;29;20138;-82
2022/09/22 06:33:10;;;;;;;17.67;7.85;;;;;;;10.25;96.05;101663.94;4966982;29;20386;-80
2022/09/22 06:35:41;;;;;;;16.23;6.93;;;;;;;10.79;92.51;101669.84;4966681;28;20099;-80
2022/09/22 06:38:16;;;;;;;13.75;7.07;;;;;;;10.78;90.48;101669.00;4965631;28;20047;-79
2022/09/22 06:40:43;;;;;;;10.35;6.95;;;;;;;10.34;91.46;101669.34;4965355;28;20051;-79
2022/09/22 06:43:18;;;;;;;9.07;6.60;;;;;;;10.89;90.03;101675.91;4957103;28;20079;-79
2022/09/22 06:45:46;;;;;;;11.32;6.82;;;;;;;11.37;88.65;101660.31;4953556;29;20056;-78
2022/09/22 06:48:39;;;;;;;12.80;6.57;;;;;;;10.78;88.70;101674.25;4951270;29;20044;-78
2022/09/22 06:54:06;;;;;;;13.05;6.70;;;;;;;10.90;88.70;101673.16;5077404;23;20078;-81
2022/09/22 06:56:41;;;;;;;12.40;6.95;;;;;;;11.56;87.36;101649.88;4991029;28;20074;-79
2022/09/22 06:59:11;;;;;;;9.50;6.22;;;;;;;13.09;82.09;101678.50;4982497;28;20129;-79
2022/09/22 07:01:47;;;;;;;9.02;5.88;;;;;;;14.09;78.06;101662.53;4982908;28;20098;-80
2022/09/22 07:04:21;;;;;;;9.90;6.32;;;;;;;14.06;77.17;101670.72;5002326;28;20060;-81
2022/09/22 07:06:49;;;;;;;10.15;6.18;;;;;;;12.41;80.56;101658.75;5012371;23;20417;-79
2022/09/22 07:09:16;;;;;;;10.48;7.10;;;;;;;11.72;84.11;101656.34;4984451;28;20054;-77
2022/09/22 07:11:43;;;;;;;11.27;6.90;;;;;;;11.76;84.73;101663.81;4975887;28;20473;-78
2022/09/22 07:14:10;;;;;;;9.43;6.40;;;;;;;11.82;84.71;101658.00;4975192;28;20051;-78
2022/09/22 07:16:38;;;;;;;13.93;8.27;;;;;;;12.60;82.95;101658.69;4964270;28;20101;-78
2022/09/22 07:19:05;;;;;;;10.23;6.57;;;;;;;12.25;82.42;101664.59;4954870;29;20110;-77
2022/09/22 07:21:35;;;;;;;9.30;5.82;;;;;;;12.02;82.69;101660.63;4955735;29;20059;-78
2022/09/22 07:24:03;;;;;;;11.27;6.15;;;;;;;12.68;81.67;101660.59;4956320;29;20102;-78
2022/09/22 07:26:32;;;;;;;9.13;5.82;;;;;;;12.49;80.90;101664.09;4955198;28;20152;-77
2022/09/22 07:29:00;;;;;;;8.23;5.78;;;;;;;13.60;79.54;101656.06;4954692;28;20051;-78
2022/09/22 07:31:28;;;;;;;9.68;6.10;;;;;;;12.73;79.60;101656.56;4955663;29;20059;-78
2022/09/22 07:33:55;;;;;;;9.93;5.60;;;;;;;13.14;79.35;101659.66;4959183;29;20051;-78
2022/09/22 07:36:24;;;;;;;10.75;5.85;;;;;;;13.09;79.99;101668.00;4959974;28;20130;-79
2022/09/22 07:38:52;;;;;;;11.57;6.35;;;;;;;13.13;79.27;101663.25;4957966;29;20127;-79
2022/09/22 07:41:22;;;;;;;8.60;5.95;;;;;;;12.76;80.17;101658.06;4958657;29;20388;-79
2022/09/22 07:43:50;;;;;;;12.35;6.03;;;;;;;13.84;76.85;101658.03;4958856;28;20062;-79
2022/09/22 07:46:16;;;;;;;10.90;5.95;;;;;;;14.14;77.36;101654.16;4960574;28;20130;-78
2022/09/22 07:48:45;;;;;;;9.68;6.57;;;;;;;13.31;78.17;101655.41;4959325;29;20055;-78
2022/09/22 07:51:17;;;;;;;10.82;6.30;;;;;;;13.83;77.37;101656.38;4955774;29;20496;-79
2022/09/22 07:53:44;;;;;;;12.73;6.82;;;;;;;13.25;78.29;101665.53;4955114;29;20051;-77
2022/09/22 07:56:13;;;;;;;10.75;6.75;;;;;;;14.32;76.71;101660.19;4954737;29;20058;-79
2022/09/22 07:58:44;;;;;;;9.07;5.95;;;;;;;14.33;74.40;101659.22;4954270;28;20051;-79
2022/09/22 08:01:11;;;;;;;10.77;5.85;;;;;;;14.13;74.38;101648.09;4955898;29;20051;-77
2022/09/22 08:03:38;;;;;;;10.93;7.25;;;;;;;13.94;75.90;101650.91;4955912;29;20055;-78
2022/09/22 08:06:09;;;;;;;10.00;6.45;;;;;;;14.63;74.56;101667.66;4954901;29;20562;-78
2022/09/22 08:08:37;;;;;;;8.77;6.28;;;;;;;14.86;72.54;101656.38;4955207;29;20063;-78
2022/09/22 08:11:09;;;;;;;9.23;6.38;;;;;;;15.11;71.76;101664.38;4956432;29;20683;-79
2022/09/22 08:13:37;;;;;;;9.00;5.82;;;;;;;14.39;74.17;101655.13;4955984;29;20413;-78
2022/09/22 08:16:06;;;;;;;8.98;6.18;;;;;;;15.25;72.22;101658.47;4955673;28;20511;-77
2022/09/22 08:18:34;;;;;;;8.10;6.10;;;;;;;14.22;73.95;101660.28;4956699;29;20043;-79
2022/09/22 08:21:02;;;;;;;10.50;6.28;;;;;;;14.10;74.48;101648.38;4961339;29;20047;-79
2022/09/22 08:23:30;;;;;;;9.70;5.90;;;;;;;15.62;71.44;101657.22;4963026;29;20071;-79
2022/09/22 08:25:56;;;;;;;8.77;6.18;;;;;;;16.21;69.82;101648.94;4961795;29;20051;-78
2022/09/22 08:28:23;;;;;;;7.78;6.22;;;;;;;15.15;71.71;101660.41;4960840;28;20086;-80
2022/09/22 08:30:53;;;;;;;10.40;6.63;;;;;;;15.40;71.75;101656.84;4958312;29;20198;-78
2022/09/22 08:33:21;;;;;;;10.93;6.35;;;;;;;14.69;72.15;101653.81;4957716;29;20431;-78
2022/09/22 08:35:53;;;;;;;7.63;6.20;;;;;;;15.01;72.91;101653.16;4959173;28;20436;-80
2022/09/22 08:38:21;;;;;;;9.55;6.50;;;;;;;14.96;71.83;101650.97;4961063;29;20043;-82
2022/09/22 08:41:07;;;;;;;12.38;6.60;;;;;;;14.99;71.75;101644.56;4961524;28;20100;-80
2022/09/22 08:43:34;;;;;;;13.48;6.03;;;;;;;15.40;71.27;101648.13;4961352;29;20074;-80
2022/09/22 08:46:04;;;;;;;9.45;6.38;;;;;;;14.91;70.93;101648.81;4960187;29;20051;-78
2022/09/22 08:54:09;;;;;;;7.90;5.68;;;;;;;16.37;67.50;101657.84;4958458;29;20099;-81
2022/09/22 08:56:41;;;;;;;11.55;6.03;;;;;;;16.12;68.50;101649.94;4958197;29;20067;-80
2022/09/22 08:59:12;;;;;;;8.88;6.05;;;;;;;16.42;67.90;101648.41;4958664;29;20067;-80
2022/09/22 09:01:52;;;;;;;8.20;5.97;;;;;;;16.81;66.66;101648.47;4960496;29;20050;-80
2022/09/22 09:04:45;;;;;;;7.35;5.63;;;;;;;17.21;65.32;101657.16;4956952;29;20043;-81
2022/09/22 09:07:15;;;;;;;;;;;;;;;17.18;63.91;101663.63;4959695;29;20130;-81
2022/09/22 09:09:53;;;;;;;7.10;5.50;;;;;;;16.35;65.78;101646.59;4964400;28;19972;-81
2022/09/22 09:12:30;;;;;;;12.00;6.13;;;;;;;16.14;67.96;101649.78;4961545;29;20051;-81
2022/09/22 09:15:14;;;;;;;13.38;6.72;;;;;;;16.25;66.82;101642.34;4966584;29;20123;-81
2022/09/22 09:17:44;;;;;;;9.88;5.97;;;;;;;16.37;66.70;101649.91;4964892;29;20051;-80
2022/09/22 09:20:34;;;;;;;8.75;6.45;;;;;;;16.73;66.20;101652.94;4958790;29;20107;-80
2022/09/22 09:23:04;;;;;;;12.88;6.93;;;;;;;16.42;65.51;101648.41;4959594;29;20059;-81
2022/09/22 09:25:35;;;;;;;8.27;6.25;;;;;;;16.31;67.54;101640.84;4952700;29;20131;-79
2022/09/22 09:28:06;;;;;;;9.02;6.00;;;;;;;15.99;66.66;101644.38;4945280;29;20059;-79
2022/09/22 09:30:41;;;;;;;10.30;6.18;;;;;;;15.64;66.52;101634.97;4950414;29;20059;-78
2022/09/22 09:33:18;;;;;;;11.13;6.15;;;;;;;15.88;67.91;101640.25;4958669;29;20098;-79
2022/09/22 09:35:52;;;;;;;9.48;6.65;;;;;;;15.83;66.49;101629.38;4959984;29;20065;-79
2022/09/22 09:38:26;;;;;;;10.63;6.90;;;;;;;16.17;66.43;101634.41;4961903;29;20412;-80
2022/09/22 09:40:59;;;;;;;10.50;7.07;;;;;;;16.24;67.50;101626.66;4946726;29;20062;-79
2022/09/22 09:43:29;;;;;;;12.23;6.50;;;;;;;16.77;67.35;101633.94;4957263;28;20083;-80
2022/09/22 09:46:15;;;;;;;8.52;6.03;;;;;;;16.69;65.45;101626.03;4964514;28;20043;-79
2022/09/22 09:48:59;;;;;;;9.18;6.32;;;;;;;16.64;65.42;101612.50;4965284;28;20166;-79
2022/09/22 09:51:28;;;;;;;11.00;6.57;;;;;;;16.09;64.30;101615.13;4964554;28;20047;-80
2022/09/22 09:53:56;;;;;;;10.15;6.82;;;;;;;16.47;65.02;101610.91;4965097;28;20154;-80
2022/09/22 09:56:25;;;;;;;12.32;6.90;;;;;;;17.13;64.22;101610.44;4965701;29;20051;-80
2022/09/22 10:01:43;;;;;;;11.23;7.10;;;;;;;16.46;62.87;101594.25;4964128;28;20164;-80
2022/09/22 10:04:18;;;;;;;10.55;7.68;;;;;;;16.54;64.87;101596.03;4959714;28;20051;-79
2022/09/22 10:06:47;;;;;;;10.35;7.53;;;;;;;17.20;64.94;101597.34;4961075;28;20539;-79
2022/09/22 10:09:24;;;;;;;10.30;7.15;;;;;;;16.71;63.46;101591.50;4963188;28;20070;-78
2022/09/22 10:11:59;;;;;;;11.13;6.47;;;;;;;17.14;63.07;101587.44;4962332;28;20047;-80
2022/09/22 10:14:30;;;;;;;7.80;5.45;;;;;;;17.54;60.56;101591.59;4965319;28;20047;-79
2022/09/22 10:16:56;;;;;;;9.07;6.35;;;;;;;17.47;60.20;101593.34;4963807;29;20062;-79
2022/09/22 10:19:28;;;;;;;10.43;7.25;;;;;;;17.21;62.20;101588.41;4964914;29;20425;-79
2022/09/22 10:22:21;;;;;;;9.87;7.10;;;;;;;17.09;60.51;101589.78;4948750;29;20078;-78
2022/09/22 10:24:57;;;;;;;8.80;5.85;;;;;;;17.00;60.81;101575.84;4960416;28;20286;-78
2022/09/22 10:27:26;;;;;;;7.82;5.68;;;;;;;17.07;61.60;101555.59;4956426;28;20417;-81
2022/09/22 10:30:22;;;;;;;10.10;5.82;;;;;;;17.57;60.31;101578.84;4961772;29;20423;-80
2022/09/22 10:33:13;;;;;;;11.30;4.82;;;;;;;17.82;59.11;101541.59;4972280;28;20055;-81
2022/09/22 10:35:42;;;;;;;6.35;4.80;;;;;;;18.00;56.56;101565.06;4959567;28;20500;-81
2022/09/22 10:38:19;;;;;;;7.72;5.45;;;;;;;18.13;56.38;101552.84;4963738;29;20047;-80
2022/09/22 10:40:50;;;;;;;7.57;5.63;;;;;;;18.02;56.64;101553.28;4963675;29;20393;-80
2022/09/22 10:43:37;;;;;;;6.68;5.47;;;;;;;17.49;56.68;101555.09;4963019;28;20051;-79
2022/09/22 10:46:27;;;;;;;10.27;5.68;;;;;;;17.22;56.25;101537.97;4963691;29;20070;-81
2022/09/22 10:49:02;;;;;;;9.20;5.10;;;;;;;17.18;56.78;101552.53;4962786;28;20051;-79
2022/09/22 10:51:46;;;;;;;9.13;4.95;;;;;;;17.91;54.75;101551.09;4963500;28;20051;-80
2022/09/22 10:55:00;;;;;;;6.97;5.00;;;;;;;17.92;54.28;101544.81;4961627;28;20480;-80
2022/09/22 10:57:46;;;;;;;11.73;4.90;;;;;;;18.22;54.83;101559.69;4944540;28;20123;-80
2022/09/22 11:00:16;;;;;;;8.95;4.85;;;;;;;17.91;55.13;101532.56;4969171;28;20048;-81
2022/09/22 11:03:12;;;;;;;5.55;4.70;;;;;;;17.65;54.01;101535.63;4966085;28;20047;-81
2022/09/22 11:14:55;;;;;;;9.85;4.97;;;;;;;18.39;52.67;101525.88;4965223;28;20057;-80
2022/09/22 11:17:36;;;;;;;6.32;4.88;;;;;;;18.16;53.19;101552.47;4962630;28;20081;-82
2022/09/22 11:20:23;;;;;;;5.80;4.20;;;;;;;18.13;52.83;101514.94;4963044;28;20142;-81
2022/09/22 11:23:37;;;;;;;7.00;3.53;;;;;;;18.44;50.42;101518.16;4963489;29;20113;-81
2022/09/22 11:26:28;;;;;;;6.82;3.45;;;;;;;18.53;49.82;101524.19;4962049;29;20047;-81
2022/09/22 11:29:20;;;;;;;6.20;3.72;;;;;;;18.20;51.91;101540.50;4949668;28;20082;-81
2022/09/22 11:31:55;;;;;;;12.43;3.80;;;;;;;18.52;52.85;101523.34;4960987;28;20047;-81
2022/09/22 11:34:41;;;;;;;8.68;3.75;;;;;;;18.42;50.55;101528.16;4966438;28;20055;-82
2022/09/22 11:37:27;;;;;;;6.13;3.70;;;;;;;18.60;50.91;101506.56;4955229;28;20401;-80
2022/09/22 11:40:10;;;;;;;10.15;4.40;;;;;;;18.93;52.44;101524.63;4966163;28;20385;-81
2022/09/22 11:42:46;;;;;;;5.85;3.95;;;;;;;18.74;51.67;101489.78;4960822;29;20052;-81
2022/09/22 11:45:32;;;;;;;5.93;3.72;;;;;;;18.60;52.57;101519.81;4962290;29;20071;-80
2022/09/22 11:48:10;;;;;;;5.30;3.50;;;;;;;18.07;51.73;101505.06;4963790;28;20083;-80
2022/09/22 11:50:59;;;;;;;4.22;3.60;;;;;;;18.21;49.75;101485.69;4968910;28;20133;-81
2022/09/22 11:53:55;;;;;;;5.00;3.55;;;;;;;17.89;50.54;101503.63;4961387;28;20106;-80
2022/09/22 11:56:42;;;;;;;6.88;3.50;;;;;;;17.49;51.55;101475.72;4952169;28;20118;-81
2022/09/22 11:59:24;;;;;;;4.85;3.83;;;;;;;18.17;52.78;101482.59;4952959;28;20078;-81
2022/09/22 12:01:55;;;;;;;4.97;3.40;;;;;;;18.39;51.36;101469.41;4961698;28;20062;-79
2022/09/22 12:04:29;;;;;;;5.18;3.60;;;;;;;18.08;50.58;101470.44;4957534;29;20047;-80
2022/09/22 12:07:00;;;;;;;4.55;3.30;;;;;;;17.91;50.79;101458.44;4961218;28;20039;-80
2022/09/22 12:09:37;;;;;;;4.72;3.40;;;;;;;18.16;50.41;101480.94;4962800;29;20051;-80
2022/09/22 12:12:08;;;;;;;5.55;3.40;;;;;;;18.28;51.82;101469.88;4959005;29;20508;-81
2022/09/22 12:14:37;;;;;;;4.63;3.20;;;;;;;18.55;49.74;101469.16;4964069;28;20051;-84
2022/09/22 12:17:12;;;;;;;5.05;3.53;;;;;;;18.30;50.40;101478.47;4961955;28;21392;-82
2022/09/22 12:19:50;;;;;;;8.25;3.50;;;;;;;18.51;51.66;101457.28;4959054;28;20051;-81
2022/09/22 12:22:24;;;;;;;5.85;3.78;;;;;;;18.68;51.35;101434.03;4961976;28;20051;-81
2022/09/22 12:24:51;;;;;;;5.07;3.60;;;;;;;18.81;49.68;101445.59;4958397;29;20059;-81
2022/09/22 12:27:22;;;;;;;4.93;3.53;;;;;;;19.02;50.57;101462.50;4959747;28;20102;-81
2022/09/22 12:29:58;;;;;;;6.28;3.80;;;;;;;18.66;50.32;101450.13;4957707;28;20054;-81
2022/09/22 12:32:33;;;;;;;3.83;3.53;;;;;;;18.39;50.26;101462.28;4962955;28;20138;-81
2022/09/22 12:35:00;;;;;;;5.00;3.35;;;;;;;18.36;50.76;101456.53;4962904;28;20115;-82
2022/09/22 12:37:30;;;;;;;4.13;3.08;;;;;;;18.57;50.70;101436.16;4963396;28;20070;-80
2022/09/22 12:40:06;;;;;;;4.13;3.15;;;;;;;18.24;49.51;101448.25;4961721;28;20134;-80
2022/09/22 12:42:36;;;;;;;3.80;2.80;;;;;;;18.76;49.78;101441.88;4967744;28;20134;-81
2022/09/22 12:45:09;;;;;;;9.98;3.10;;;;;;;18.84;48.89;101444.41;4962650;28;20089;-80
2022/09/22 12:47:39;;;;;;;4.57;3.40;;;;;;;18.46;48.28;101438.47;4964293;28;20062;-82
2022/09/22 12:50:30;;;;;;;8.35;3.42;;;;;;;18.83;48.41;101432.97;4962862;28;20138;-81
2022/09/22 12:53:03;;;;;;;3.10;2.70;;;;;;;18.88;50.29;101433.22;4962245;28;20105;-81
2022/09/22 12:55:37;;;;;;;5.75;3.00;;;;;;;19.03;49.48;101433.13;4965037;28;20075;-81
2022/09/22 12:58:04;;;;;;;4.32;2.90;;;;;;;18.94;48.10;101420.19;4954353;28;20051;-81
2022/09/22 13:00:36;;;;;;;5.43;2.63;;;;;;;18.79;50.40;101429.06;4961725;28;20102;-81
2022/09/22 13:03:47;;;;;;;3.38;2.95;;;;;;;18.89;49.60;101436.69;4961022;29;20051;-82
2022/09/22 13:16:24;;;;;;;3.20;2.67;;;;;;;18.99;48.11;101391.25;4886360;29;20091;-84
2022/09/22 13:19:36;;;;;;;2.60;2.38;;;;;;;18.86;48.06;101394.66;4832259;29;20068;-83
2022/09/22 13:22:30;;;;;;;4.25;2.78;;;;;;;18.69;48.01;101410.00;4893825;29;20108;-84
2022/09/22 13:24:57;;;;;;;4.00;2.45;;;;;;;18.53;47.30;101402.25;4913280;29;20538;-84
2022/09/22 13:34:48;;;;;;;3.95;2.58;;;;;;;19.15;47.99;101404.25;4836054;29;20053;-84
2022/09/22 13:42:59;;;;;;;3.35;3.00;;;;;;;19.12;49.83;101396.66;4954797;29;20056;-80
2022/09/22 13:45:28;;;;;;;4.80;2.95;;;;;;;19.16;49.95;101376.69;4960647;29;20071;-79
2022/09/22 13:48:01;;;;;;;3.20;2.90;;;;;;;19.16;49.67;101389.97;4954272;29;20047;-80
2022/09/22 13:50:27;;;;;;;3.65;2.78;;;;;;;19.05;49.13;101387.84;4954534;29;20147;-80
2022/09/22 13:52:55;;;;;;;8.30;3.30;;;;;;;18.84;49.73;101378.09;4948510;29;20047;-80
2022/09/22 13:55:28;;;;;;;5.97;3.30;;;;;;;18.63;49.78;101383.41;4945361;28;20134;-80
2022/09/22 13:57:57;;;;;;;6.13;2.85;;;;;;;18.75;49.40;101373.94;4950109;29;20059;-80
2022/09/22 14:00:26;;;;;;;5.43;3.03;;;;;;;18.84;50.33;101381.59;4950142;29;20498;-80
2022/09/22 14:02:56;;;;;;;6.13;3.40;;;;;;;18.83;50.58;101376.47;4942541;29;20050;-81
2022/09/22 14:05:26;;;;;;;3.58;2.90;;;;;;;18.83;49.84;101363.22;4942415;29;20150;-80
2022/09/22 14:07:56;;;;;;;5.18;2.70;;;;;;;18.96;50.17;101362.47;4959680;29;20126;-80
2022/09/22 14:10:24;;;;;;;2.88;2.45;;;;;;;18.62;49.29;101364.03;4964361;28;20142;-81